Airfield :







YOU CAN JOIN US ON...

 
LOGIN :

Register | Disclaimer

   EN    FR    IT 

 









Legend :    VFR   Marginal VFR   IFR   Intensive IFR   Very Intensive IFR
Visi :
Ceiling :
>= 8 km
>= 3000ft
5 to 8 km
1000 to 3000 ft
1500m to 5 km
500 to 1000 ft
800 to 1500m
200 to 500 ft
< 800m
< 200 ft
Symbols :   Thunderstorms  Fog  Heavy snow  Heavy precipitations  Wind > 20 kt






- Airport Elevation : 474 ft


KPTD - Potsdam Municipal-Damon field

CURRENT METAR :
  • 190755Z AUTO 00000KT 2SM BR FEW026 FEW031 SCT049 06/06 A3019 RMK AO2

EXPIRED METARs :
  • 190735Z AUTO 00000KT 10SM FEW049 07/06 A3018 RMK AO2
  • 190715Z AUTO 00000KT 10SM FEW030 FEW050 07/06 A3019 RMK AO2
  • 190655Z AUTO 00000KT 9SM FEW022 FEW027 SCT050 07/06 A3019 RMK AO2
  • 190635Z AUTO 00000KT 10SM FEW047 07/07 A3019 RMK AO2
  • 190615Z AUTO 00000KT 10SM FEW048 07/07 A3019 RMK AO2
  • 190555Z AUTO 00000KT 10SM CLR 07/07 A3019 RMK AO2
  • 190535Z AUTO 00000KT 3SM BR FEW050 08/07 A3019 RMK AO2
  • 190515Z AUTO 00000KT 1 1/2SM BR SCT036 SCT045 08/07 A3019 RMK AO2

TAF N/A
KZBW FIR / North America



MET'MAP, your aeronautical weather chart ! - Copyright ORBIFLY December 2007 - Disclaimer

ORBIFLY MET'MAP TEAM :

Programming & Development : Alexandra Zaïnal
Concept & original design : Baudouin d'Aumeries
Assistance for programming : Marc-Olivier Méhu
Technical & hardware support : Manuel Goepfert

Contact : metmap@orbifly.com




SOURCES & CREDITS :

   NOAA